Time;durP1;ratioP1;P1;durP2;ratioP2;P2;SDS_P1;SDS_P2;PMS_P1;PMS_P2;Temp;Humidity;BMP_temperature;BMP_pressure;BME280_temperature;BME280_humidity;BME280_pressure;Samples;Min_cycle;Max_cycle;Signal;HPM_P1;HPM_P2
2021/09/23 00:07:11;;;;;;;18.75;11.48;;;12.60;99.90;;;;;;8359760;28;20506;-73
2021/09/23 00:11:12;;;;;;;18.42;11.05;;;12.50;99.90;;;;;;8361108;28;20174;-74
2021/09/23 00:15:15;;;;;;;20.33;10.90;;;12.50;99.90;;;;;;8356563;28;20099;-75
2021/09/23 00:19:18;;;;;;;17.98;10.45;;;12.50;99.90;;;;;;8351874;28;20057;-73
2021/09/23 00:23:19;;;;;;;17.90;10.60;;;12.50;99.90;;;;;;8354702;28;20488;-73
2021/09/23 00:27:21;;;;;;;17.48;10.70;;;12.50;99.90;;;;;;8358636;28;20044;-73
2021/09/23 00:31:23;;;;;;;17.88;10.23;;;12.40;99.90;;;;;;8356891;28;20041;-73
2021/09/23 00:35:25;;;;;;;18.23;10.40;;;12.40;99.90;;;;;;8357506;28;20663;-73
2021/09/23 00:39:27;;;;;;;16.63;10.57;;;12.40;99.90;;;;;;8358034;28;20087;-73
2021/09/23 00:43:28;;;;;;;17.15;10.85;;;12.30;99.90;;;;;;8358464;28;20110;-73
2021/09/23 00:47:30;;;;;;;16.50;10.50;;;12.30;99.90;;;;;;8352366;28;20045;-73
2021/09/23 00:51:32;;;;;;;14.38;9.15;;;12.20;99.90;;;;;;8353071;28;20456;-73
2021/09/23 00:55:34;;;;;;;15.60;9.38;;;12.20;99.90;;;;;;8358480;28;20091;-73
2021/09/23 00:59:36;;;;;;;16.95;10.88;;;12.20;99.90;;;;;;8352935;28;20049;-73
2021/09/23 01:03:37;;;;;;;17.38;10.65;;;12.10;99.90;;;;;;8358115;28;20520;-74
2021/09/23 01:07:47;;;;;;;19.17;11.40;;;12.10;99.90;;;;;;8359148;28;20063;-73
2021/09/23 01:11:49;;;;;;;17.95;11.00;;;12.10;99.90;;;;;;8354413;28;20041;-74
2021/09/23 01:15:51;;;;;;;19.30;11.40;;;12.10;99.90;;;;;;8355352;28;20110;-73
2021/09/23 01:19:53;;;;;;;19.48;11.13;;;12.10;99.90;;;;;;8353285;28;20076;-73
2021/09/23 01:23:54;;;;;;;16.45;9.48;;;12.10;99.90;;;;;;8350456;28;20055;-74
2021/09/23 01:27:56;;;;;;;17.80;10.88;;;12.00;99.90;;;;;;8348602;28;20046;-73
2021/09/23 01:31:59;;;;;;;18.20;11.40;;;12.00;99.90;;;;;;8356404;28;20044;-73
2021/09/23 01:36:02;;;;;;;15.30;10.25;;;12.00;99.90;;;;;;8357205;28;20110;-73
2021/09/23 01:40:06;;;;;;;16.90;10.30;;;12.00;99.90;;;;;;8356639;28;20044;-73
2021/09/23 01:44:08;;;;;;;16.83;9.77;;;11.90;99.90;;;;;;8356860;28;20049;-73
2021/09/23 01:48:10;;;;;;;16.77;10.30;;;11.90;99.90;;;;;;8357530;28;21031;-73
2021/09/23 01:52:33;;;;;;;17.45;11.00;;;11.80;99.90;;;;;;8355508;28;20106;-73
2021/09/23 01:56:35;;;;;;;15.52;9.68;;;11.80;99.90;;;;;;8348776;28;20068;-73
2021/09/23 02:00:37;;;;;;;14.30;9.15;;;11.80;99.90;;;;;;8351547;28;20049;-73
2021/09/23 02:04:39;;;;;;;16.83;10.38;;;11.80;99.90;;;;;;8352295;28;20064;-73
2021/09/23 02:08:41;;;;;;;19.42;11.80;;;11.80;99.90;;;;;;8349370;28;20045;-73
2021/09/23 02:12:42;;;;;;;20.67;12.90;;;11.80;99.90;;;;;;8356174;28;20095;-73
2021/09/23 02:16:44;;;;;;;28.92;14.52;;;11.80;99.90;;;;;;8354883;28;20378;-73
2021/09/23 02:20:51;;;;;;;29.55;16.08;;;11.80;99.90;;;;;;8347436;28;20045;-73
2021/09/23 02:24:53;;;;;;;26.90;15.65;;;11.80;99.90;;;;;;8353873;28;20087;-73
2021/09/23 02:28:55;;;;;;;26.30;15.98;;;11.90;99.90;;;;;;8356141;28;20485;-73
2021/09/23 02:32:57;;;;;;;26.52;15.60;;;11.80;99.90;;;;;;8346971;28;20129;-73
2021/09/23 02:36:59;;;;;;;22.95;13.35;;;11.90;99.90;;;;;;8353845;28;20059;-74
2021/09/23 02:41:01;;;;;;;24.08;15.10;;;12.00;99.90;;;;;;8356637;28;20048;-74
2021/09/23 02:45:04;;;;;;;23.58;15.32;;;12.00;99.90;;;;;;8349041;28;20484;-73
2021/09/23 02:49:06;;;;;;;32.60;17.98;;;12.00;99.90;;;;;;8354859;28;20191;-74
2021/09/23 02:53:08;;;;;;;29.80;16.05;;;12.00;99.90;;;;;;8352686;28;20045;-74
2021/09/23 02:57:10;;;;;;;26.27;15.30;;;12.00;99.90;;;;;;8354070;28;20120;-73
2021/09/23 03:01:12;;;;;;;26.00;14.80;;;12.10;99.90;;;;;;8354479;28;20114;-74
2021/09/23 03:05:14;;;;;;;19.48;11.88;;;12.10;99.90;;;;;;8352505;28;20149;-73
2021/09/23 03:09:15;;;;;;;118.30;14.05;;;12.10;99.90;;;;;;8354940;28;20037;-74
2021/09/23 03:13:17;;;;;;;21.73;13.38;;;12.20;99.90;;;;;;8358882;28;20437;-73
2021/09/23 03:17:19;;;;;;;19.73;12.10;;;12.20;99.90;;;;;;8359817;28;20049;-73
2021/09/23 03:21:21;;;;;;;11.93;7.60;;;12.10;99.90;;;;;;8354047;28;20126;-74
2021/09/23 03:25:23;;;;;;;17.92;10.85;;;12.00;99.90;;;;;;8359571;28;20041;-73
2021/09/23 03:29:25;;;;;;;18.67;11.38;;;12.00;99.90;;;;;;8360970;28;20400;-73
2021/09/23 03:33:26;;;;;;;20.23;11.75;;;12.00;99.90;;;;;;8362090;28;20041;-72
2021/09/23 03:37:29;;;;;;;21.25;12.68;;;11.90;99.90;;;;;;8351556;28;20091;-73
2021/09/23 03:41:32;;;;;;;24.38;14.45;;;11.80;99.90;;;;;;8354950;28;20052;-74
2021/09/23 03:45:34;;;;;;;27.48;15.02;;;11.90;99.90;;;;;;8354731;28;20551;-73
2021/09/23 03:49:36;;;;;;;26.77;15.50;;;11.90;99.90;;;;;;8358941;28;20052;-74
2021/09/23 03:53:38;;;;;;;21.05;12.75;;;11.90;99.90;;;;;;8360902;28;20052;-73
2021/09/23 03:57:40;;;;;;;23.00;13.27;;;11.90;99.90;;;;;;8360695;28;20909;-73
2021/09/23 04:01:41;;;;;;;17.83;10.85;;;11.90;99.90;;;;;;8358094;28;20049;-73
2021/09/23 04:05:45;;;;;;;15.50;8.85;;;11.90;99.90;;;;;;8357994;28;20045;-74
2021/09/23 04:09:47;;;;;;;19.75;10.60;;;11.80;99.90;;;;;;8362825;28;20107;-73
2021/09/23 04:13:49;;;;;;;19.23;11.13;;;11.70;99.90;;;;;;8360315;28;20051;-73
2021/09/23 04:17:51;;;;;;;13.77;8.45;;;11.70;99.90;;;;;;8359043;28;20175;-73
2021/09/23 04:21:53;;;;;;;14.55;8.68;;;11.60;99.90;;;;;;8355078;28;20045;-74
2021/09/23 04:25:55;;;;;;;16.42;8.90;;;11.60;99.90;;;;;;8359225;28;20045;-73
2021/09/23 04:29:56;;;;;;;13.43;7.95;;;11.60;99.90;;;;;;8357602;28;20091;-74
2021/09/23 04:33:58;;;;;;;14.05;8.85;;;11.60;99.90;;;;;;8354739;28;20053;-73
2021/09/23 04:38:00;;;;;;;23.48;14.00;;;11.60;99.90;;;;;;8347583;28;20074;-73
2021/09/23 04:42:02;;;;;;;28.70;16.42;;;11.70;99.90;;;;;;8355135;28;20044;-73
2021/09/23 04:46:04;;;;;;;34.03;20.88;;;11.70;99.90;;;;;;8348030;28;20037;-73
2021/09/23 04:50:06;;;;;;;35.65;22.63;;;11.70;99.90;;;;;;8345784;28;20072;-73
2021/09/23 04:54:08;;;;;;;34.60;20.83;;;11.70;99.90;;;;;;8352457;28;20114;-74
2021/09/23 04:58:10;;;;;;;36.13;22.52;;;11.70;99.90;;;;;;8346749;28;20048;-73
2021/09/23 05:02:12;;;;;;;45.65;28.02;;;11.80;99.90;;;;;;8353344;28;20049;-73
2021/09/23 05:06:17;;;;;;;48.03;28.17;;;11.80;99.90;;;;;;8356123;28;20048;-73
2021/09/23 05:10:19;;;;;;;44.97;25.55;;;11.80;99.90;;;;;;8356254;28;20041;-73
2021/09/23 05:14:21;;;;;;;55.25;31.80;;;11.90;99.90;;;;;;8365182;28;20077;-73
2021/09/23 05:18:23;;;;;;;55.50;30.35;;;12.00;99.90;;;;;;8367174;28;20121;-73
2021/09/23 05:22:27;;;;;;;54.58;33.20;;;12.20;99.90;;;;;;8352227;28;20121;-73
2021/09/23 05:26:29;;;;;;;56.47;33.38;;;12.30;99.90;;;;;;8354935;28;20057;-73
2021/09/23 05:30:31;;;;;;;50.58;28.58;;;12.30;99.90;;;;;;8348687;28;20041;-73
2021/09/23 05:34:32;;;;;;;52.15;28.13;;;12.30;99.90;;;;;;8345371;28;20049;-73
2021/09/23 05:38:34;;;;;;;53.30;31.25;;;12.40;99.90;;;;;;8350087;28;20053;-73
2021/09/23 05:42:37;;;;;;;55.78;30.70;;;12.50;99.90;;;;;;8350115;28;20499;-73
2021/09/23 05:46:39;;;;;;;55.78;33.22;;;12.50;99.90;;;;;;8348746;28;20049;-72
2021/09/23 05:50:41;;;;;;;61.78;37.47;;;12.60;99.90;;;;;;8355675;28;20334;-73
2021/09/23 05:54:44;;;;;;;62.37;35.77;;;12.70;99.90;;;;;;8353735;28;20621;-73
2021/09/23 05:58:45;;;;;;;64.13;36.97;;;12.70;99.90;;;;;;8352223;28;20408;-73
2021/09/23 06:02:47;;;;;;;58.75;35.25;;;12.70;99.90;;;;;;8345727;28;19929;-73
2021/09/23 06:06:50;;;;;;;62.22;35.65;;;12.80;99.90;;;;;;8350728;28;19921;-73
2021/09/23 06:10:52;;;;;;;65.97;38.08;;;12.80;99.90;;;;;;8353338;28;20049;-73
2021/09/23 06:14:54;;;;;;;66.93;37.10;;;12.80;99.90;;;;;;8348202;28;20137;-73
2021/09/23 06:18:55;;;;;;;66.40;39.15;;;12.90;99.90;;;;;;8347610;28;20052;-73
2021/09/23 06:22:57;;;;;;;54.17;34.53;;;12.90;99.90;;;;;;8349072;28;20122;-73
2021/09/23 06:26:59;;;;;;;54.50;31.38;;;13.00;99.90;;;;;;8350569;28;20052;-73
2021/09/23 06:31:04;;;;;;;66.83;38.23;;;13.00;99.90;;;;;;8350533;28;20048;-73
2021/09/23 06:35:06;;;;;;;;;;;13.10;99.90;;;;;;8351793;28;19924;-73
2021/09/23 06:39:19;;;;;;;;;;;13.20;99.90;;;;;;8344513;28;19991;-74
2021/09/23 06:43:21;;;;;;;;;;;13.20;99.90;;;;;;8354204;28;20384;-72
2021/09/23 06:47:23;;;;;;;;;;;13.30;99.90;;;;;;8359242;28;20292;-74
2021/09/23 06:51:24;;;;;;;;;;;13.40;99.90;;;;;;8360639;28;19932;-73
2021/09/23 06:55:39;;;;;;;;;;;13.40;99.90;;;;;;8359047;28;19941;-73
2021/09/23 06:59:41;;;;;;;;;;;13.40;99.90;;;;;;8359164;28;19932;-74
2021/09/23 07:03:42;;;;;;;52.80;31.75;;;13.40;99.90;;;;;;8353306;28;19979;-74
2021/09/23 07:08:00;;;;;;;65.85;37.40;;;13.50;99.90;;;;;;8357920;28;20385;-73
2021/09/23 07:12:02;;;;;;;58.83;33.80;;;13.50;99.90;;;;;;8359639;28;20461;-70
2021/09/23 07:16:04;;;;;;;75.57;44.75;;;13.60;99.90;;;;;;8360715;28;20045;-73
2021/09/23 07:20:06;;;;;;;76.15;44.70;;;13.70;99.90;;;;;;8358050;28;20057;-76
2021/09/23 07:24:08;;;;;;;85.65;46.65;;;13.70;99.90;;;;;;8344475;28;20053;-74
2021/09/23 07:28:15;;;;;;;77.03;41.17;;;13.80;99.90;;;;;;8340851;28;20095;-73
2021/09/23 07:32:17;;;;;;;86.63;46.50;;;13.90;99.90;;;;;;8339844;28;20492;-71
2021/09/23 07:36:20;;;;;;;71.17;39.97;;;14.10;99.90;;;;;;8336890;28;20061;-74
2021/09/23 07:40:21;;;;;;;;;;;14.20;99.90;;;;;;8338488;28;20140;-74
2021/09/23 07:44:24;;;;;;;;;;;14.30;99.90;;;;;;8334881;28;19929;-72
2021/09/23 07:48:26;;;;;;;;;;;14.40;99.90;;;;;;8338744;28;19962;-76
2021/09/23 07:52:28;;;;;;;;;;;14.60;99.90;;;;;;8340675;28;19920;-73
2021/09/23 07:56:30;;;;;;;;;;;14.70;99.90;;;;;;8343856;28;19921;-72
2021/09/23 08:00:32;;;;;;;;;;;14.80;99.90;;;;;;8336612;28;19929;-74
2021/09/23 08:04:34;;;;;;;;;;;15.00;99.90;;;;;;8334323;28;19940;-73
2021/09/23 08:08:35;;;;;;;;;;;15.10;99.90;;;;;;8336936;28;20269;-73
2021/09/23 08:12:37;;;;;;;;;;;15.20;99.90;;;;;;8335346;28;19951;-74
2021/09/23 08:16:39;;;;;;;56.05;33.63;;;15.40;99.90;;;;;;8337000;28;19920;-73
2021/09/23 08:20:41;;;;;;;47.55;27.92;;;15.50;99.90;;;;;;8334679;28;20098;-73
2021/09/23 08:24:43;;;;;;;54.40;32.33;;;15.70;99.90;;;;;;8333287;28;20045;-72
2021/09/23 08:28:44;;;;;;;44.45;26.52;;;15.80;99.90;;;;;;8331178;28;20485;-72
2021/09/23 08:32:47;;;;;;;40.55;24.75;;;15.90;99.90;;;;;;8335654;28;20045;-73
2021/09/23 08:36:48;;;;;;;;;;;16.00;99.90;;;;;;8331036;28;20053;-73
2021/09/23 08:40:51;;;;;;;;;;;16.10;99.90;;;;;;8337885;28;19925;-72
2021/09/23 08:44:54;;;;;;;;;;;16.10;99.90;;;;;;8332856;28;19921;-74
2021/09/23 08:48:59;;;;;;;;;;;16.00;99.90;;;;;;8328603;28;19970;-73
2021/09/23 08:53:01;;;;;;;;;;;16.00;99.90;;;;;;8327574;28;20273;-74
2021/09/23 08:57:03;;;;;;;;;;;16.00;99.90;;;;;;8324475;28;19929;-73
2021/09/23 09:01:15;;;;;;;;;;;16.00;99.90;;;;;;8326837;28;19932;-73
2021/09/23 09:05:18;;;;;;;;;;;16.10;99.90;;;;;;8324728;28;19929;-73
2021/09/23 09:09:20;;;;;;;;;;;16.30;99.90;;;;;;8323366;28;20399;-73
2021/09/23 09:13:32;;;;;;;;;;;16.30;99.90;;;;;;8328016;28;19925;-73
2021/09/23 09:17:37;;;;;;;;;;;16.40;99.90;;;;;;8324780;28;19929;-74
2021/09/23 09:21:39;;;;;;;;;;;16.40;99.90;;;;;;8319756;28;19931;-73
2021/09/23 09:25:41;;;;;;;;;;;16.40;99.90;;;;;;8322603;28;19932;-73
2021/09/23 09:29:52;;;;;;;;;;;16.40;99.90;;;;;;8320163;28;19929;-73
2021/09/23 09:33:55;;;;;;;;;;;16.50;99.90;;;;;;8317955;28;19929;-73
2021/09/23 09:37:58;;;;;;;;;;;16.70;99.90;;;;;;8333108;28;19932;-73
2021/09/23 09:42:00;;;;;;;;;;;16.80;99.90;;;;;;8320036;28;19937;-73
2021/09/23 09:46:02;;;;;;;;;;;17.00;99.90;;;;;;8320035;28;19989;-73
2021/09/23 09:50:11;;;;;;;;;;;17.20;99.90;;;;;;8322914;28;19924;-73
2021/09/23 09:54:16;;;;;;;;;;;17.30;99.90;;;;;;8320827;28;19969;-73
2021/09/23 09:58:21;;;;;;;;;;;17.30;99.90;;;;;;8328627;28;25194;-73
2021/09/23 10:02:23;;;;;;;;;;;17.30;99.90;;;;;;8333078;28;19925;-74
2021/09/23 10:06:26;;;;;;;;;;;17.30;99.90;;;;;;8337815;28;19921;-73
2021/09/23 10:10:28;;;;;;;;;;;17.40;99.90;;;;;;8325271;28;19990;-73
2021/09/23 10:14:31;;;;;;;;;;;17.40;99.90;;;;;;8322475;28;19979;-74
2021/09/23 10:18:33;;;;;;;;;;;17.40;99.90;;;;;;8324305;28;25102;-73
2021/09/23 10:22:35;;;;;;;;;;;17.50;99.90;;;;;;8323452;28;20364;-73
2021/09/23 10:26:39;;;;;;;;;;;17.40;99.90;;;;;;8325367;28;19929;-74
2021/09/23 10:30:44;;;;;;;;;;;17.40;99.90;;;;;;8326303;28;20339;-74
2021/09/23 10:34:49;;;;;;;;;;;17.40;99.90;;;;;;8318928;28;19924;-74
2021/09/23 10:38:50;;;;;;;;;;;17.40;99.90;;;;;;8327117;28;19920;-74
2021/09/23 10:42:54;;;;;;;;;;;17.40;99.90;;;;;;8330488;28;20307;-73
2021/09/23 10:46:56;;;;;;;;;;;17.40;99.90;;;;;;8330281;28;19966;-73
2021/09/23 10:50:58;;;;;;;;;;;17.30;99.90;;;;;;8327868;28;19921;-72
2021/09/23 10:55:01;;;;;;;;;;;17.30;99.90;;;;;;8330698;28;19929;-74
2021/09/23 10:59:03;;;;;;;;;;;17.30;99.90;;;;;;8340197;28;20348;-73
2021/09/23 11:03:07;;;;;;;;;;;17.30;99.90;;;;;;8329479;28;19921;-73
2021/09/23 11:07:09;;;;;;;;;;;17.40;99.90;;;;;;8327763;28;19937;-73
2021/09/23 11:11:11;;;;;;;;;;;17.50;99.90;;;;;;8328210;28;19966;-72
2021/09/23 11:15:13;;;;;;;;;;;17.80;99.90;;;;;;8325653;28;20441;-73
2021/09/23 11:19:22;;;;;;;12.07;4.18;;;18.00;99.90;;;;;;8321947;28;20291;-73
2021/09/23 11:23:24;;;;;;;;;;;18.20;99.90;;;;;;8327284;28;20049;-73
2021/09/23 11:27:25;;;;;;;;;;;18.40;99.90;;;;;;8327925;28;19927;-73
2021/09/23 11:31:43;;;;;;;;;;;18.40;99.90;;;;;;8339106;28;19940;-73
2021/09/23 11:35:46;;;;;;;;;;;18.60;99.90;;;;;;8337526;28;19925;-73
2021/09/23 11:39:47;;;;;;;;;;;18.70;99.90;;;;;;8326859;28;20300;-73
2021/09/23 11:43:49;;;;;;;;;;;18.80;99.90;;;;;;8323607;28;20292;-73
2021/09/23 11:47:54;;;;;;;;;;;18.80;99.90;;;;;;8324830;28;19928;-74
2021/09/23 11:51:56;;;;;;;;;;;18.70;99.90;;;;;;8329293;28;19936;-73
2021/09/23 11:55:57;;;;;;;;;;;18.70;99.90;;;;;;8325171;28;20292;-72
2021/09/23 12:00:01;;;;;;;;;;;18.60;99.90;;;;;;8330414;28;19921;-73
2021/09/23 12:04:10;;;;;;;;;;;18.60;99.90;;;;;;8328950;28;20402;-73
2021/09/23 12:08:21;;;;;;;;;;;18.50;99.90;;;;;;8331339;28;24544;-72
2021/09/23 12:12:26;;;;;;;;;;;18.50;99.90;;;;;;8322455;28;19929;-73
2021/09/23 12:16:30;;;;;;;;;;;18.50;99.90;;;;;;8332206;28;19925;-73
2021/09/23 12:20:36;;;;;;;;;;;18.60;99.90;;;;;;8323578;28;20324;-73
2021/09/23 12:24:40;;;;;;;;;;;18.60;99.90;;;;;;8325010;28;19921;-73
2021/09/23 12:28:44;;;;;;;;;;;18.70;99.90;;;;;;8323943;28;19990;-73
2021/09/23 12:32:46;;;;;;;;;;;18.70;99.90;;;;;;8322830;28;19986;-72
2021/09/23 12:36:49;;;;;;;;;;;18.70;99.90;;;;;;8321351;28;19966;-73
2021/09/23 12:40:50;;;;;;;;;;;18.60;99.90;;;;;;8323619;28;19925;-73
2021/09/23 12:44:56;;;;;;;;;;;18.60;99.90;;;;;;8322337;28;19928;-73
2021/09/23 12:49:11;;;;;;;;;;;18.50;99.90;;;;;;8322563;28;20015;-73
2021/09/23 12:53:16;;;;;;;;;;;18.50;99.90;;;;;;8324274;28;20402;-73
2021/09/23 12:57:19;;;;;;;;;;;18.50;99.90;;;;;;8322158;28;20234;-72
2021/09/23 13:01:21;;;;;;;;;;;18.50;99.90;;;;;;8323805;28;19936;-72
2021/09/23 13:05:27;;;;;;;;;;;18.50;99.90;;;;;;8321146;28;19946;-73
2021/09/23 13:09:29;;;;;;;;;;;18.50;99.90;;;;;;8321484;28;19928;-73
2021/09/23 13:13:30;;;;;;;;;;;18.40;99.90;;;;;;8322988;28;20377;-73
2021/09/23 13:17:32;;;;;;;;;;;18.40;99.90;;;;;;8320821;28;20027;-73
2021/09/23 13:21:36;;;;;;;;;;;18.40;99.90;;;;;;8321244;28;19929;-73
2021/09/23 13:25:38;;;;;;;;;;;18.40;99.90;;;;;;8324691;28;20317;-73
2021/09/23 13:29:40;;;;;;;;;;;18.30;99.90;;;;;;8326411;28;21753;-73
2021/09/23 13:33:43;;;;;;;;;;;18.30;99.90;;;;;;8325820;28;24604;-72
2021/09/23 13:37:45;;;;;;;;;;;18.40;99.90;;;;;;8324033;28;19929;-74
2021/09/23 13:41:47;;;;;;;;;;;18.40;99.90;;;;;;8322036;28;20419;-73
2021/09/23 13:45:49;;;;;;;;;;;18.40;99.90;;;;;;8314548;28;19928;-73
2021/09/23 13:49:50;;;;;;;;;;;18.50;99.90;;;;;;8317625;28;19975;-73
2021/09/23 13:53:52;;;;;;;;;;;18.50;99.90;;;;;;8330364;28;19921;-73
2021/09/23 13:57:54;;;;;;;;;;;18.50;99.90;;;;;;8319778;28;20517;-74
2021/09/23 14:01:56;;;;;;;;;;;18.50;99.90;;;;;;8321242;28;20284;-73
2021/09/23 14:05:58;;;;;;;;;;;18.60;99.90;;;;;;8317927;28;19944;-73
2021/09/23 14:10:00;;;;;;;;;;;18.60;99.90;;;;;;8317593;28;19929;-73
2021/09/23 14:14:02;;;;;;;;;;;18.60;99.90;;;;;;8329209;28;20378;-73
2021/09/23 14:18:03;;;;;;;;;;;18.60;99.90;;;;;;8339119;28;19925;-74
2021/09/23 14:22:13;;;;;;;;;;;18.60;99.90;;;;;;8323998;28;19991;-74
2021/09/23 14:26:16;;;;;;;;;;;18.60;99.90;;;;;;8322956;28;19931;-74
2021/09/23 14:30:18;;;;;;;;;;;18.60;99.90;;;;;;8321788;28;20438;-73
2021/09/23 14:34:20;;;;;;;;;;;18.60;99.90;;;;;;8319952;28;19921;-73
2021/09/23 14:38:21;;;;;;;;;;;18.70;99.90;;;;;;8320488;28;20278;-73
2021/09/23 14:42:23;;;;;;;;;;;18.70;99.90;;;;;;8324087;28;20019;-73
2021/09/23 14:46:25;;;;;;;;;;;18.80;99.90;;;;;;8321053;28;19933;-73
2021/09/23 14:50:51;;;;;;;;;;;18.90;99.90;;;;;;8322098;28;19925;-74
2021/09/23 14:54:53;;;;;;;;;;;18.90;99.90;;;;;;8319783;28;19940;-73
2021/09/23 14:58:55;;;;;;;;;;;18.80;99.90;;;;;;8321276;28;20490;-74
2021/09/23 15:02:57;;;;;;;;;;;18.80;99.90;;;;;;8326651;28;19925;-74
2021/09/23 15:06:59;;;;;;;;;;;18.90;99.90;;;;;;8334463;28;19929;-74
2021/09/23 15:11:02;;;;;;;;;;;18.80;99.90;;;;;;8333829;28;19921;-73
2021/09/23 15:15:04;;;;;;;;;;;18.80;99.90;;;;;;8331944;28;20346;-73
2021/09/23 15:19:06;;;;;;;;;;;18.80;99.90;;;;;;8331955;28;19921;-73
2021/09/23 15:23:08;;;;;;;;;;;18.80;99.90;;;;;;8322858;28;20319;-74
2021/09/23 15:27:10;;;;;;;;;;;18.90;99.90;;;;;;8320354;28;19982;-73
2021/09/23 15:31:12;;;;;;;;;;;18.80;99.90;;;;;;8325074;28;19928;-74
2021/09/23 15:35:14;;;;;;;;;;;18.80;99.90;;;;;;8322695;28;20292;-73
2021/09/23 15:39:15;;;;;;;;;;;18.80;99.90;;;;;;8322655;28;20016;-73
2021/09/23 15:43:17;;;;;;;;;;;18.80;99.90;;;;;;8322972;28;20007;-73
2021/09/23 15:47:19;;;;;;;;;;;18.70;99.90;;;;;;8321616;28;19927;-73
2021/09/23 15:51:20;;;;;;;;;;;18.70;99.90;;;;;;8322643;28;19928;-73
2021/09/23 15:55:22;;;;;;;;;;;18.70;99.90;;;;;;8325716;28;19921;-73
2021/09/23 15:59:24;;;;;;;;;;;18.60;99.90;;;;;;8323772;28;20354;-73
2021/09/23 16:03:26;;;;;;;;;;;18.60;99.90;;;;;;8324449;28;19929;-73
2021/09/23 16:07:27;;;;;;;;;;;18.60;99.90;;;;;;8327107;28;19929;-73
2021/09/23 16:11:29;;;;;;;;;;;18.60;99.90;;;;;;8327121;28;19928;-73
2021/09/23 16:15:31;;;;;;;;;;;18.60;99.90;;;;;;8325103;28;19925;-73
2021/09/23 16:19:33;;;;;;;;;;;18.60;99.90;;;;;;8322638;28;19921;-73
2021/09/23 16:23:35;;;;;;;;;;;18.60;99.90;;;;;;8322175;28;19925;-73
2021/09/23 16:27:38;;;;;;;;;;;18.60;99.90;;;;;;8325872;28;20445;-73
2021/09/23 16:31:40;;;;;;;;;;;18.50;99.90;;;;;;8327835;28;19979;-73
2021/09/23 16:35:44;;;;;;;;;;;18.50;99.90;;;;;;8333117;28;19983;-73
2021/09/23 16:39:47;;;;;;;;;;;18.50;99.90;;;;;;8330094;28;19936;-73
2021/09/23 16:43:48;;;;;;;;;;;18.50;99.90;;;;;;8327819;28;19925;-73
2021/09/23 16:47:50;;;;;;;;;;;18.50;99.90;;;;;;8323647;28;19929;-73
2021/09/23 16:51:52;;;;;;;;;;;18.50;99.90;;;;;;8339061;28;21090;-73
2021/09/23 16:55:54;;;;;;;;;;;18.50;99.90;;;;;;8329452;28;20368;-73
2021/09/23 16:59:55;;;;;;;;;;;18.60;99.90;;;;;;8326160;28;20024;-73
2021/09/23 17:03:58;;;;;;;;;;;18.60;99.90;;;;;;8325079;28;19935;-73
2021/09/23 17:08:02;;;;;;;;;;;18.60;99.90;;;;;;8329394;28;20292;-73
2021/09/23 17:12:03;;;;;;;;;;;18.60;99.90;;;;;;8338187;28;19921;-74
2021/09/23 17:16:05;;;;;;;;;;;18.60;99.90;;;;;;8339847;28;19937;-73
2021/09/23 17:20:08;;;;;;;;;;;18.60;99.90;;;;;;8328511;28;20519;-73
2021/09/23 17:24:09;;;;;;;;;;;18.50;99.90;;;;;;8332922;28;19925;-74
2021/09/23 17:28:11;;;;;;;;;;;18.50;99.90;;;;;;8331968;28;19993;-73
2021/09/23 17:32:13;;;;;;;;;;;18.50;99.90;;;;;;8333170;28;19935;-73
2021/09/23 17:36:15;;;;;;;;;;;18.40;99.90;;;;;;8321179;28;19936;-73
2021/09/23 17:40:16;;;;;;;;;;;18.40;99.90;;;;;;8347590;28;19924;-76
2021/09/23 17:44:19;;;;;;;;;;;18.30;99.90;;;;;;8351113;28;20046;-73
2021/09/23 17:48:22;;;;;;;;;;;18.30;99.90;;;;;;8324540;28;19928;-73
2021/09/23 17:52:24;;;;;;;;;;;18.20;99.90;;;;;;8327903;28;19920;-74
2021/09/23 17:56:26;;;;;;;;;;;18.20;99.90;;;;;;8329140;28;20922;-73
2021/09/23 18:00:27;;;;;;;;;;;18.10;99.90;;;;;;8325218;28;19932;-73
2021/09/23 18:07:43;;;;;;;;;;;18.00;99.90;;;;;;8383306;27;1912217;-73
2021/09/23 18:11:44;;;;;;;;;;;18.00;99.90;;;;;;8421734;28;20489;-73
2021/09/23 18:15:46;;;;;;;;;;;17.90;99.90;;;;;;8424436;28;20645;-74
2021/09/23 18:19:48;;;;;;;;;;;17.90;99.90;;;;;;8423151;28;20041;-74
2021/09/23 18:23:50;;;;;;;;;;;17.90;99.90;;;;;;8423507;28;19955;-73
2021/09/23 18:27:51;;;;;;;;;;;17.90;99.90;;;;;;8417652;28;19997;-71
2021/09/23 18:31:53;;;;;;;;;;;17.90;99.90;;;;;;8417855;28;19931;-71
2021/09/23 18:35:55;;;;;;;;;;;17.90;99.90;;;;;;8415548;28;19928;-71
2021/09/23 18:39:57;;;;;;;;;;;17.90;99.90;;;;;;8421216;28;19928;-72
2021/09/23 18:43:59;;;;;;;;;;;17.80;99.90;;;;;;8415632;28;19933;-71
2021/09/23 18:48:00;;;;;;;;;;;17.80;99.90;;;;;;8420230;28;19970;-71
2021/09/23 18:52:02;;;;;;;;;;;17.90;99.90;;;;;;8424681;28;19924;-72
2021/09/23 18:56:04;;;;;;;;;;;17.90;99.90;;;;;;8430665;28;20532;-71
2021/09/23 19:00:07;;;;;;;;;;;17.90;99.90;;;;;;8424594;28;19923;-71
2021/09/23 19:04:08;;;;;;;;;;;17.90;99.90;;;;;;8421685;28;19939;-71
2021/09/23 19:08:11;;;;;;;;;;;17.90;99.90;;;;;;8405727;28;19924;-71
2021/09/23 19:12:13;;;;;;;;;;;17.80;99.90;;;;;;8404917;28;19932;-71
2021/09/23 19:16:15;;;;;;;;;;;17.80;99.90;;;;;;8417349;28;19924;-72
2021/09/23 19:20:18;;;;;;;;;;;17.80;99.90;;;;;;8400260;28;19975;-72
2021/09/23 19:24:22;;;;;;;;;;;17.80;99.90;;;;;;8382272;28;21170;-71
2021/09/23 19:28:24;;;;;;;;;;;17.80;99.90;;;;;;8404455;28;19928;-71
2021/09/23 19:32:25;;;;;;;;;;;17.80;99.90;;;;;;8391878;28;19973;-71
2021/09/23 19:36:27;;;;;;;;;;;17.90;99.90;;;;;;8391195;28;20383;-72
2021/09/23 19:40:30;;;;;;;;;;;17.90;99.90;;;;;;8393129;28;20299;-71
2021/09/23 19:44:35;;;;;;;;;;;18.00;99.90;;;;;;8393650;28;19970;-72
2021/09/23 19:48:37;;;;;;;;;;;18.00;99.90;;;;;;8391135;28;19989;-72
2021/09/23 19:52:39;;;;;;;;;;;18.00;99.90;;;;;;8393752;28;19932;-71
2021/09/23 19:56:41;;;;;;;;;;;18.00;99.90;;;;;;8392186;28;19928;-72
2021/09/23 20:00:42;;;;;;;;;;;18.10;99.90;;;;;;8391478;28;20004;-71
2021/09/23 20:04:44;;;;;;;;;;;18.10;99.90;;;;;;8391232;28;20486;-72
2021/09/23 20:08:46;;;;;;;;;;;18.10;99.90;;;;;;8387033;28;19924;-71
2021/09/23 20:12:48;;;;;;;;;;;18.10;99.90;;;;;;8393899;28;19970;-71
2021/09/23 20:16:52;;;;;;;;;;;18.00;99.90;;;;;;8396754;28;19925;-71
2021/09/23 20:20:55;;;;;;;;;;;18.00;99.90;;;;;;8402396;28;19935;-72
2021/09/23 20:24:56;;;;;;;;;;;18.00;99.90;;;;;;8390607;28;19936;-71
2021/09/23 20:28:58;;;;;;;;;;;17.90;99.90;;;;;;8390505;28;19936;-74
2021/09/23 20:33:00;;;;;;;;;;;17.90;99.90;;;;;;8389216;28;19932;-73
2021/09/23 20:37:02;;;;;;;;;;;17.90;99.90;;;;;;8392404;28;19932;-73
2021/09/23 20:41:03;;;;;;;;;;;17.90;99.90;;;;;;8375801;28;19924;-73
2021/09/23 20:45:05;;;;;;;;;;;17.80;99.90;;;;;;8391374;28;20442;-73
2021/09/23 20:49:27;;;;;;;;;;;17.80;99.90;;;;;;8393118;28;19932;-73
2021/09/23 20:53:29;;;;;;;;;;;17.80;99.90;;;;;;8390416;28;19932;-73
2021/09/23 20:57:47;;;;;;;;;;;17.80;99.90;;;;;;8388353;28;19924;-73
2021/09/23 21:01:48;;;;;;;;;;;17.80;99.90;;;;;;8397100;28;20437;-73
2021/09/23 21:05:51;;;;;;;;;;;17.80;99.90;;;;;;8412829;28;19950;-73
2021/09/23 21:09:52;;;;;;;;;;;17.80;99.90;;;;;;8416588;28;19928;-73
2021/09/23 21:13:54;;;;;;;;;;;17.80;99.90;;;;;;8415485;28;19970;-73
2021/09/23 21:17:56;;;;;;;;;;;17.80;99.90;;;;;;8419195;28;19935;-73
2021/09/23 21:21:57;;;;;;;;;;;17.80;99.90;;;;;;8403238;28;19946;-73
2021/09/23 21:25:59;;;;;;;;;;;17.80;99.90;;;;;;8415864;28;20398;-73
2021/09/23 21:30:01;;;;;;;;;;;17.80;99.90;;;;;;8414323;28;20364;-73
2021/09/23 21:34:03;;;;;;;;;;;17.70;99.90;;;;;;8414497;28;19931;-73
2021/09/23 21:38:05;;;;;;;;;;;17.60;99.90;;;;;;8411398;28;19936;-73
2021/09/23 21:42:07;;;;;;;;;;;17.50;99.90;;;;;;8416146;28;20007;-73
2021/09/23 21:46:08;;;;;;;;;;;17.50;99.90;;;;;;8411753;28;19969;-73
2021/09/23 21:50:11;;;;;;;;;;;17.50;99.90;;;;;;8404976;28;19936;-73
2021/09/23 21:54:13;;;;;;;;;;;17.50;99.90;;;;;;8414495;28;19992;-73
2021/09/23 21:58:15;;;;;;;;;;;17.50;99.90;;;;;;8410499;28;19924;-73
2021/09/23 22:02:17;;;;;;;;;;;17.50;99.90;;;;;;8407826;28;19993;-73
2021/09/23 22:06:19;;;;;;;;;;;17.40;99.90;;;;;;8412524;28;19924;-73
2021/09/23 22:10:20;;;;;;;;;;;17.30;99.90;;;;;;8412228;28;19927;-73
2021/09/23 22:14:22;;;;;;;;;;;17.30;99.90;;;;;;8416124;28;19924;-73
2021/09/23 22:18:24;;;;;;;;;;;17.30;99.90;;;;;;8409562;28;19940;-73
2021/09/23 22:22:25;;;;;;;;;;;17.40;99.90;;;;;;8417678;28;19928;-73
2021/09/23 22:26:27;;;;;;;;;;;17.40;99.90;;;;;;8398497;28;19970;-73
2021/09/23 22:30:29;;;;;;;;;;;17.30;99.90;;;;;;8411392;28;19964;-73
2021/09/23 22:34:30;;;;;;;;;;;17.20;99.90;;;;;;8416580;28;19931;-72